createdAt,value
2018-10-19T00:02:07.429Z,28.30
2018-10-19T00:04:34.997Z,28.40
2018-10-19T00:07:02.565Z,31.13
2018-10-19T00:09:30.099Z,30.47
2018-10-19T00:11:57.640Z,30.47
2018-10-19T00:14:25.210Z,33.63
2018-10-19T00:16:52.793Z,31.27
2018-10-19T00:19:20.366Z,30.20
2018-10-19T00:21:47.901Z,31.83
2018-10-19T00:24:16.249Z,34.40
2018-10-19T00:26:43.845Z,33.07
2018-10-19T00:29:13.418Z,33.80
2018-10-19T00:31:40.984Z,31.73
2018-10-19T00:34:08.561Z,32.87
2018-10-19T00:36:36.927Z,32.97
2018-10-19T00:39:04.489Z,35.17
2018-10-19T00:41:32.075Z,32.73
2018-10-19T00:44:00.705Z,31.40
2018-10-19T00:46:28.254Z,34.45
2018-10-19T00:48:55.835Z,34.67
2018-10-19T00:51:24.314Z,33.30
2018-10-19T00:53:51.894Z,34.10
2018-10-19T00:56:19.429Z,34.47
2018-10-19T00:58:47.005Z,31.50
2018-10-19T01:01:15.514Z,34.30
2018-10-19T01:03:43.100Z,32.40
2018-10-19T01:06:10.662Z,34.03
2018-10-19T01:08:38.242Z,34.47
2018-10-19T01:11:05.809Z,35.58
2018-10-19T01:13:33.374Z,36.10
2018-10-19T01:16:00.912Z,35.43
2018-10-19T01:18:28.482Z,35.23
2018-10-19T01:20:56.067Z,32.97
2018-10-19T01:23:23.613Z,35.17
2018-10-19T01:25:51.140Z,35.93
2018-10-19T01:28:18.713Z,34.87
2018-10-19T01:30:46.253Z,35.43
2018-10-19T01:33:13.881Z,34.40
2018-10-19T01:35:41.385Z,32.97
2018-10-19T01:38:09.680Z,34.77
2018-10-19T01:40:37.248Z,35.70
2018-10-19T01:43:04.808Z,39.20
2018-10-19T01:45:32.340Z,36.65
2018-10-19T01:47:59.905Z,34.70
2018-10-19T01:50:27.473Z,34.97
2018-10-19T01:52:55.040Z,35.53
2018-10-19T01:55:22.589Z,34.87
2018-10-19T01:57:50.147Z,35.87
2018-10-19T02:00:17.708Z,38.00
2018-10-19T02:02:45.243Z,35.67
2018-10-19T02:05:12.823Z,35.60
2018-10-19T02:07:40.360Z,36.73
2018-10-19T02:10:07.928Z,33.60
2018-10-19T02:12:35.457Z,36.73
2018-10-19T02:15:03.090Z,36.20
2018-10-19T02:17:30.613Z,37.77
2018-10-19T02:19:58.180Z,35.90
2018-10-19T02:22:25.749Z,38.00
2018-10-19T02:24:53.309Z,34.00
2018-10-19T02:27:20.849Z,36.30
2018-10-19T02:29:48.416Z,34.60
2018-10-19T02:32:16.945Z,36.97
2018-10-19T02:34:44.510Z,37.40
2018-10-19T02:37:12.043Z,37.70
2018-10-19T02:39:40.369Z,37.53
2018-10-19T02:42:07.935Z,35.17
2018-10-19T02:44:35.503Z,37.67
2018-10-19T02:47:03.068Z,36.97
2018-10-19T02:49:30.625Z,38.30
2018-10-19T02:51:58.163Z,36.60
2018-10-19T02:54:25.733Z,36.43
2018-10-19T02:56:53.360Z,36.40
2018-10-19T02:59:22.793Z,37.73
2018-10-19T03:01:50.331Z,36.87
2018-10-19T03:04:17.897Z,37.50
2018-10-19T03:06:45.430Z,37.10
2018-10-19T03:09:13.032Z,36.60
2018-10-19T03:11:40.594Z,36.40
2018-10-19T03:14:08.159Z,34.63
2018-10-19T03:16:35.695Z,36.00
2018-10-19T03:19:03.262Z,36.87
2018-10-19T03:21:30.829Z,35.57
2018-10-19T03:23:58.561Z,36.17
2018-10-19T03:26:27.075Z,34.57
2018-10-19T03:28:54.668Z,36.03
2018-10-19T03:31:24.159Z,34.83
2018-10-19T03:33:51.717Z,36.33
2018-10-19T03:36:19.298Z,35.03
2018-10-19T03:38:46.936Z,35.03
2018-10-19T03:41:15.452Z,34.67
2018-10-19T03:43:43.017Z,35.53
2018-10-19T03:46:10.586Z,35.50
2018-10-19T03:48:38.153Z,36.47
2018-10-19T03:51:05.747Z,35.53
2018-10-19T03:53:33.317Z,36.10
2018-10-19T03:56:01.843Z,33.47
2018-10-19T03:58:29.409Z,35.10
2018-10-19T04:00:56.938Z,33.17
2018-10-19T04:03:24.497Z,33.33
2018-10-19T04:05:52.061Z,35.03
2018-10-19T04:08:19.590Z,33.90
2018-10-19T04:10:47.166Z,35.60
2018-10-19T04:13:14.698Z,36.13
2018-10-19T04:15:42.275Z,35.00
2018-10-19T04:18:09.801Z,37.27
2018-10-19T04:20:37.357Z,36.50
2018-10-19T04:23:04.957Z,35.40
2018-10-19T04:25:33.245Z,35.60
2018-10-19T04:28:00.777Z,35.30
2018-10-19T04:30:29.321Z,35.23
2018-10-19T04:32:57.842Z,35.50
2018-10-19T04:35:25.412Z,34.63
2018-10-19T04:37:52.946Z,36.80
2018-10-19T04:40:20.523Z,40.47
2018-10-19T04:42:48.057Z,37.07
2018-10-19T04:45:15.667Z,37.27
2018-10-19T04:47:43.243Z,39.20
2018-10-19T04:50:10.765Z,40.20
2018-10-19T04:52:38.297Z,39.77
2018-10-19T04:55:05.866Z,37.90
2018-10-19T04:57:33.401Z,35.60
2018-10-19T05:00:00.969Z,38.70
2018-10-19T05:02:28.540Z,39.20
2018-10-19T05:04:56.210Z,36.80
2018-10-19T05:07:25.594Z,34.67
2018-10-19T05:09:53.121Z,31.73
2018-10-19T05:12:20.778Z,33.73
2018-10-19T05:14:48.257Z,32.73
2018-10-19T05:17:15.905Z,34.07
2018-10-19T05:19:43.374Z,32.37
2018-10-19T05:22:10.946Z,33.23
2018-10-19T05:24:38.506Z,32.73
2018-10-19T05:27:06.086Z,33.33
2018-10-19T05:29:33.617Z,31.60
2018-10-19T05:32:01.176Z,31.77
2018-10-19T05:34:28.744Z,32.53
2018-10-19T05:36:57.318Z,32.70
2018-10-19T05:39:30.762Z,33.40
2018-10-19T05:41:58.437Z,35.60
2018-10-19T05:44:26.014Z,36.73
2018-10-19T05:46:53.619Z,37.63
2018-10-19T05:49:21.162Z,36.67
2018-10-19T05:51:48.697Z,36.33
2018-10-19T05:54:16.263Z,36.97
2018-10-19T05:56:43.832Z,35.90
2018-10-19T05:59:11.427Z,39.27
2018-10-19T06:01:38.941Z,38.63
2018-10-19T06:04:07.273Z,39.80
2018-10-19T06:06:34.840Z,38.80
2018-10-19T06:09:02.410Z,38.03
2018-10-19T06:11:29.951Z,32.10
2018-10-19T06:13:57.545Z,33.00
2018-10-19T06:16:26.249Z,32.60
2018-10-19T06:18:54.584Z,32.53
2018-10-19T06:21:22.128Z,32.40
2018-10-19T06:23:51.664Z,31.33
2018-10-19T06:26:19.246Z,32.23
2018-10-19T06:28:47.809Z,31.27
2018-10-19T06:31:15.350Z,32.67
2018-10-19T06:33:42.928Z,31.83
2018-10-19T06:36:10.509Z,32.70
2018-10-19T06:38:38.849Z,34.33
2018-10-19T06:41:06.453Z,34.33
2018-10-19T06:43:33.936Z,34.13
2018-10-19T06:46:01.502Z,34.23
2018-10-19T06:48:29.038Z,33.70
2018-10-19T06:50:56.606Z,34.07
2018-10-19T06:53:24.379Z,35.60
2018-10-19T06:55:51.915Z,37.17
2018-10-19T06:58:19.486Z,38.97
2018-10-19T07:00:47.053Z,37.37
2018-10-19T07:03:14.622Z,39.30
2018-10-19T07:05:42.188Z,37.50
2018-10-19T07:08:09.913Z,38.10
2018-10-19T07:10:37.372Z,43.90
2018-10-19T07:13:04.944Z,43.00
2018-10-19T07:15:32.591Z,46.33
2018-10-19T07:18:00.165Z,49.33
2018-10-19T07:20:27.733Z,47.50
2018-10-19T07:22:55.351Z,43.87
2018-10-19T07:25:22.866Z,46.97
2018-10-19T07:27:50.434Z,46.37
2018-10-19T07:30:18.733Z,49.03
2018-10-19T07:32:46.310Z,47.20
2018-10-19T07:35:13.964Z,50.63
2018-10-19T07:37:41.432Z,48.73
2018-10-19T07:40:08.985Z,48.17
2018-10-19T07:42:36.600Z,46.03
2018-10-19T07:45:04.844Z,44.85
2018-10-19T07:47:33.465Z,45.80
2018-10-19T07:50:00.921Z,46.97
2018-10-19T07:52:28.508Z,45.60
2018-10-19T07:54:56.049Z,43.73
2018-10-19T07:57:23.628Z,45.00
2018-10-19T07:59:51.164Z,44.43
2018-10-19T08:02:18.694Z,44.77
2018-10-19T08:04:46.261Z,44.50
2018-10-19T08:07:14.564Z,43.80
2018-10-19T08:09:42.130Z,45.67
2018-10-19T08:12:09.679Z,45.03
2018-10-19T08:14:37.247Z,45.67
2018-10-19T08:17:04.824Z,47.00
2018-10-19T08:19:32.477Z,41.77
2018-10-19T08:22:00.055Z,43.53
2018-10-19T08:24:27.638Z,45.20
2018-10-19T08:26:55.188Z,44.90
2018-10-19T08:29:23.526Z,46.87
2018-10-19T08:31:51.073Z,47.97
2018-10-19T08:34:18.637Z,50.27
2018-10-19T08:36:46.186Z,47.30
2018-10-19T08:39:13.766Z,45.67
2018-10-19T08:41:41.319Z,50.27
2018-10-19T08:44:08.909Z,51.23
2018-10-19T08:46:37.230Z,51.87
2018-10-19T08:49:04.839Z,53.90
2018-10-19T08:51:33.430Z,56.50
2018-10-19T08:54:03.742Z,57.67
2018-10-19T08:56:31.290Z,56.80
2018-10-19T08:58:58.922Z,57.80
2018-10-19T09:01:26.584Z,57.20
2018-10-19T09:03:54.179Z,57.60
2018-10-19T09:06:22.684Z,56.87
2018-10-19T09:08:50.259Z,56.90
2018-10-19T09:11:17.905Z,57.27
2018-10-19T09:13:47.358Z,54.37
2018-10-19T09:16:14.896Z,56.30
2018-10-19T09:18:42.527Z,55.30
2018-10-19T09:21:10.069Z,55.03
2018-10-19T09:23:37.670Z,57.10
2018-10-19T09:26:05.206Z,54.90
2018-10-19T09:28:32.876Z,52.63
2018-10-19T09:31:00.444Z,55.40
2018-10-19T09:33:28.945Z,54.83
2018-10-19T09:35:56.599Z,53.70
2018-10-19T09:38:25.930Z,56.10
2018-10-19T09:40:53.514Z,56.43
2018-10-19T09:43:21.059Z,55.07
2018-10-19T09:45:49.627Z,54.17
2018-10-19T09:48:17.197Z,55.63
2018-10-19T09:50:44.736Z,59.07
2018-10-19T09:53:12.377Z,61.63
2018-10-19T09:55:39.905Z,59.13
2018-10-19T09:58:07.469Z,58.50
2018-10-19T10:00:35.031Z,62.23
2018-10-19T10:03:02.638Z,56.40
2018-10-19T10:05:30.189Z,56.77
2018-10-19T10:07:57.838Z,63.63
2018-10-19T10:10:25.334Z,57.70
2018-10-19T10:12:52.922Z,61.30
2018-10-19T10:15:20.633Z,58.97
2018-10-19T10:17:48.094Z,61.20
2018-10-19T10:20:21.812Z,58.90
2018-10-19T10:22:49.491Z,58.00
2018-10-19T10:25:17.090Z,60.87
2018-10-19T10:27:44.665Z,58.23
2018-10-19T10:30:12.212Z,59.23
2018-10-19T10:32:40.513Z,56.70
2018-10-19T10:35:08.093Z,57.23
2018-10-19T10:37:35.633Z,58.83
2018-10-19T10:40:03.223Z,58.43
2018-10-19T10:42:30.776Z,57.00
2018-10-19T10:44:58.364Z,59.63
2018-10-19T10:47:25.896Z,53.43
2018-10-19T10:49:55.425Z,53.67
2018-10-19T10:52:22.978Z,57.00
2018-10-19T10:54:51.317Z,54.77
2018-10-19T10:57:18.853Z,54.73
2018-10-19T10:59:46.446Z,51.97
2018-10-19T11:02:14.002Z,53.97
2018-10-19T11:04:41.545Z,54.73
2018-10-19T11:07:09.132Z,52.63
2018-10-19T11:09:36.681Z,53.90
2018-10-19T11:12:04.269Z,52.17
2018-10-19T11:14:31.821Z,53.73
2018-10-19T11:16:59.392Z,54.00
2018-10-19T11:19:26.929Z,54.80
2018-10-19T11:21:54.537Z,55.13
2018-10-19T11:24:22.065Z,53.77
2018-10-19T11:26:49.634Z,56.00
2018-10-19T11:29:17.165Z,55.03
2018-10-19T11:31:44.766Z,57.20
2018-10-19T11:34:13.357Z,56.80
2018-10-19T11:36:40.849Z,56.33
2018-10-19T11:39:08.385Z,55.23
2018-10-19T11:41:35.967Z,56.07
2018-10-19T11:44:03.518Z,55.80
2018-10-19T11:46:31.100Z,53.33
2018-10-19T11:48:58.677Z,58.10
2018-10-19T11:51:26.229Z,57.40
2018-10-19T11:53:53.765Z,57.20
2018-10-19T11:56:31.178Z,54.60
2018-10-19T11:58:58.704Z,56.20
2018-10-19T12:01:27.038Z,55.13
2018-10-19T12:03:54.597Z,55.53
2018-10-19T12:06:22.172Z,58.03
2018-10-19T12:08:49.741Z,60.80
2018-10-19T12:11:17.278Z,58.57
2018-10-19T12:13:44.841Z,59.27
2018-10-19T12:16:12.542Z,57.40
2018-10-19T12:18:40.774Z,58.33
2018-10-19T12:21:08.328Z,58.30
2018-10-19T12:23:35.902Z,57.77
2018-10-19T12:26:03.499Z,57.57
2018-10-19T12:28:31.038Z,56.30
2018-10-19T12:30:58.636Z,55.47
2018-10-19T12:33:26.174Z,59.13
2018-10-19T12:35:54.757Z,59.60
2018-10-19T12:38:22.326Z,56.40
2018-10-19T12:40:49.865Z,57.77
2018-10-19T12:43:19.378Z,57.93
2018-10-19T12:45:58.541Z,57.37
2018-10-19T12:48:26.113Z,57.47
2018-10-19T12:50:53.657Z,54.40
2018-10-19T12:53:21.801Z,55.90
2018-10-19T12:55:50.322Z,55.43
2018-10-19T12:58:17.893Z,54.77
2018-10-19T13:00:46.197Z,52.67
2018-10-19T13:03:13.818Z,52.73
2018-10-19T13:05:41.841Z,52.70
2018-10-19T13:08:10.524Z,52.50
2018-10-19T13:10:39.030Z,52.20
2018-10-19T13:13:06.644Z,52.97
2018-10-19T13:15:34.922Z,54.00
2018-10-19T13:18:02.562Z,55.07
2018-10-19T13:20:30.059Z,54.53
2018-10-19T13:22:57.597Z,52.13
2018-10-19T13:25:25.174Z,54.13
2018-10-19T13:27:52.705Z,51.30
2018-10-19T13:30:20.283Z,54.70
2018-10-19T13:32:57.306Z,51.00
2018-10-19T13:35:25.625Z,51.90
2018-10-19T13:37:53.186Z,52.23
2018-10-19T13:40:20.753Z,51.10
2018-10-19T13:42:48.324Z,54.03
2018-10-19T13:45:15.981Z,50.90
2018-10-19T13:47:43.464Z,50.70
2018-10-19T13:50:11.882Z,52.43
2018-10-19T13:52:39.421Z,49.80
2018-10-19T13:55:07.753Z,50.17
2018-10-19T13:57:36.249Z,51.60
2018-10-19T14:00:04.892Z,51.47
2018-10-19T14:02:32.426Z,50.47
2018-10-19T14:05:00.037Z,51.10
2018-10-19T14:07:27.549Z,51.70
2018-10-19T14:09:55.112Z,51.20
2018-10-19T14:12:22.654Z,50.07
2018-10-19T14:14:50.230Z,50.07
2018-10-19T14:17:17.769Z,51.60
2018-10-19T14:19:45.345Z,51.30
2018-10-19T14:22:12.881Z,50.93
2018-10-19T14:24:40.418Z,49.50
2018-10-19T14:27:08.024Z,49.77
2018-10-19T14:29:35.565Z,49.97
2018-10-19T14:32:03.142Z,51.93
2018-10-19T14:34:32.661Z,51.77
2018-10-19T14:37:00.200Z,48.57
2018-10-19T14:39:30.211Z,49.80
2018-10-19T14:41:57.822Z,48.58
2018-10-19T14:44:25.384Z,50.33
2018-10-19T14:46:52.960Z,49.50
2018-10-19T14:49:21.277Z,49.13
2018-10-19T14:51:48.849Z,52.47
2018-10-19T14:54:16.426Z,55.33
2018-10-19T14:56:43.970Z,50.53
2018-10-19T14:59:13.553Z,53.80
2018-10-19T15:01:41.029Z,52.43
2018-10-19T15:04:08.613Z,51.67
2018-10-19T15:06:36.178Z,53.70
2018-10-19T15:09:03.824Z,50.57
2018-10-19T15:11:37.973Z,53.47
2018-10-19T15:14:05.394Z,53.63
2018-10-19T15:16:33.692Z,51.67
2018-10-19T15:19:01.259Z,50.30
2018-10-19T15:21:30.758Z,49.67
2018-10-19T15:23:58.395Z,51.00
2018-10-19T15:26:25.911Z,49.20
2018-10-19T15:28:53.467Z,53.60
2018-10-19T15:31:21.062Z,51.43
2018-10-19T15:33:48.601Z,55.57
2018-10-19T15:36:17.067Z,51.90
2018-10-19T15:38:44.501Z,51.73
2018-10-19T15:41:12.074Z,52.27
2018-10-19T15:43:39.635Z,50.90
2018-10-19T15:46:07.225Z,50.90
2018-10-19T15:48:35.531Z,45.80
2018-10-19T15:51:03.117Z,43.00
2018-10-19T15:53:30.668Z,43.63
2018-10-19T15:55:58.238Z,45.00
2018-10-19T15:58:25.773Z,47.17
2018-10-19T16:00:53.347Z,48.37
2018-10-19T16:03:20.893Z,49.70
2018-10-19T16:05:48.474Z,47.20
2018-10-19T16:08:16.026Z,46.03
2018-10-19T16:10:44.373Z,48.83
2018-10-19T16:13:11.926Z,48.73
2018-10-19T16:15:39.503Z,49.07
2018-10-19T16:18:07.081Z,47.60
2018-10-19T16:20:34.653Z,48.93
2018-10-19T16:23:02.956Z,49.67
2018-10-19T16:25:31.516Z,47.40
2018-10-19T16:27:59.046Z,48.27
2018-10-19T16:30:26.639Z,45.60
2018-10-19T16:32:55.955Z,45.13
2018-10-19T16:35:27.374Z,45.17
2018-10-19T16:37:54.964Z,45.53
2018-10-19T16:40:22.546Z,44.93
2018-10-19T16:42:50.117Z,43.07
2018-10-19T16:45:17.752Z,43.13
2018-10-19T16:47:45.266Z,43.17
2018-10-19T16:50:13.625Z,42.70
2018-10-19T16:52:41.209Z,44.77
2018-10-19T16:55:10.222Z,45.57
2018-10-19T16:57:37.796Z,47.03
2018-10-19T17:00:06.354Z,46.10
2018-10-19T17:02:33.910Z,47.77
2018-10-19T17:05:01.936Z,45.70
2018-10-19T17:07:29.427Z,45.90
2018-10-19T17:09:56.979Z,46.73
2018-10-19T17:12:26.307Z,44.70
2018-10-19T17:14:54.859Z,46.10
2018-10-19T17:17:22.438Z,43.23
2018-10-19T17:19:49.973Z,45.60
2018-10-19T17:22:17.578Z,43.90
2018-10-19T17:24:45.114Z,43.30
2018-10-19T17:27:12.789Z,44.30
2018-10-19T17:29:40.277Z,44.17
2018-10-19T17:32:07.870Z,44.23
2018-10-19T17:34:35.408Z,44.90
2018-10-19T17:37:03.029Z,44.10
2018-10-19T17:39:30.582Z,50.00
2018-10-19T17:41:58.174Z,46.83
2018-10-19T17:44:26.489Z,46.57
2018-10-19T17:46:54.287Z,46.73
2018-10-19T17:49:21.837Z,45.07
2018-10-19T17:51:49.418Z,43.30
2018-10-19T17:54:17.441Z,44.33
2018-10-19T17:56:45.001Z,44.23
2018-10-19T17:59:12.629Z,45.53
2018-10-19T18:01:40.150Z,45.70
2018-10-19T18:04:07.723Z,47.57
2018-10-19T18:06:37.205Z,44.60
2018-10-19T18:09:04.835Z,47.80
2018-10-19T18:11:32.423Z,53.53
2018-10-19T18:13:59.979Z,52.30
2018-10-19T18:16:27.574Z,46.53
2018-10-19T18:18:55.151Z,51.20
2018-10-19T18:21:22.779Z,50.80
2018-10-19T18:23:50.323Z,53.97
2018-10-19T18:26:18.842Z,53.40
2018-10-19T18:28:46.418Z,64.07
2018-10-19T18:31:13.966Z,54.30
2018-10-19T18:33:41.564Z,50.20
2018-10-19T18:36:09.146Z,51.00
2018-10-19T18:38:36.697Z,49.67
2018-10-19T18:41:04.327Z,48.67
2018-10-19T18:43:32.162Z,46.63
2018-10-19T18:45:59.737Z,49.93
2018-10-19T18:48:27.282Z,110.87
2018-10-19T18:50:54.882Z,55.80
2018-10-19T18:53:22.462Z,53.37
2018-10-19T18:55:50.006Z,52.90
2018-10-19T18:58:17.584Z,50.83
2018-10-19T19:00:45.949Z,49.40
2018-10-19T19:03:14.290Z,46.20
2018-10-19T19:05:41.837Z,51.70
2018-10-19T19:08:09.468Z,50.00
2018-10-19T19:10:37.000Z,49.13
2018-10-19T19:13:05.345Z,51.30
2018-10-19T19:15:32.909Z,48.93
2018-10-19T19:18:00.478Z,50.30
2018-10-19T19:20:28.046Z,49.80
2018-10-19T19:22:56.442Z,47.37
2018-10-19T19:28:20.326Z,50.22
2018-10-19T19:30:47.901Z,49.20
2018-10-19T19:33:15.437Z,48.43
2018-10-19T19:35:43.770Z,47.40
2018-10-19T19:38:12.377Z,47.23
2018-10-19T19:40:39.915Z,48.93
2018-10-19T19:43:07.488Z,46.67
2018-10-19T19:45:35.028Z,44.17
2018-10-19T19:48:02.662Z,45.93
2018-10-19T19:50:30.236Z,46.20
2018-10-19T19:52:57.870Z,44.20
2018-10-19T19:55:27.083Z,44.87
2018-10-19T19:57:54.715Z,45.40
2018-10-19T20:00:22.264Z,45.80
2018-10-19T20:02:49.839Z,46.47
2018-10-19T20:05:17.431Z,49.70
2018-10-19T20:07:44.957Z,50.67
2018-10-19T20:10:12.523Z,53.13
2018-10-19T20:12:40.089Z,51.77
2018-10-19T20:15:08.590Z,52.50
2018-10-19T20:17:36.159Z,52.27
2018-10-19T20:20:03.776Z,51.60
2018-10-19T20:22:32.305Z,53.70
2018-10-19T20:24:59.869Z,53.00
2018-10-19T20:27:27.429Z,53.70
2018-10-19T20:29:55.726Z,54.60
2018-10-19T20:32:25.374Z,53.90
2018-10-19T20:34:52.787Z,56.10
2018-10-19T20:37:20.346Z,55.60
2018-10-19T20:39:47.939Z,52.00
2018-10-19T20:42:15.517Z,51.50
2018-10-19T20:44:43.093Z,48.67
2018-10-19T20:47:11.595Z,51.80
2018-10-19T20:49:39.156Z,54.37
2018-10-19T20:52:06.729Z,52.20
2018-10-19T20:54:34.303Z,48.80
2018-10-19T20:57:01.840Z,51.60
2018-10-19T20:59:29.410Z,54.67
2018-10-19T21:01:57.957Z,53.42
2018-10-19T21:04:25.542Z,49.10
2018-10-19T21:06:53.079Z,50.87
2018-10-19T21:09:20.644Z,49.63
2018-10-19T21:11:48.195Z,45.97
2018-10-19T21:14:15.813Z,48.03
2018-10-19T21:16:43.333Z,45.93
2018-10-19T21:19:12.965Z,45.40
2018-10-19T21:21:40.576Z,45.50
2018-10-19T21:24:08.150Z,46.07
2018-10-19T21:26:35.781Z,44.67
2018-10-19T21:29:03.366Z,44.60
2018-10-19T21:31:30.902Z,43.57
2018-10-19T21:34:00.426Z,46.67
2018-10-19T21:36:28.931Z,45.00
2018-10-19T21:38:56.497Z,45.40
2018-10-19T21:41:24.029Z,44.13
2018-10-19T21:43:51.600Z,42.27
2018-10-19T21:46:19.134Z,43.20
2018-10-19T21:48:47.871Z,44.70
2018-10-19T21:51:16.206Z,41.00
2018-10-19T21:53:43.749Z,40.17
2018-10-19T21:56:11.346Z,38.03
2018-10-19T21:58:39.849Z,40.43
2018-10-19T22:01:08.182Z,40.50
2018-10-19T22:03:35.706Z,40.40
2018-10-19T22:06:03.271Z,39.60
2018-10-19T22:08:30.842Z,42.07
2018-10-19T22:10:58.399Z,43.63
2018-10-19T22:13:25.935Z,41.87
2018-10-19T22:15:53.508Z,41.30
2018-10-19T22:18:21.045Z,43.80
2018-10-19T22:20:49.593Z,44.13
2018-10-19T22:23:17.201Z,43.07
2018-10-19T22:25:45.681Z,42.60
2018-10-19T22:28:13.217Z,43.60
2018-10-19T22:30:40.783Z,43.10
2018-10-19T22:33:08.325Z,42.60
2018-10-19T22:35:35.906Z,42.13
2018-10-19T22:38:03.446Z,41.80
2018-10-19T22:40:30.985Z,41.10
2018-10-19T22:42:59.259Z,41.87
2018-10-19T22:45:27.368Z,40.70
2018-10-19T22:47:54.961Z,40.83
2018-10-19T22:50:23.458Z,41.93
2018-10-19T22:52:51.520Z,45.60
2018-10-19T22:55:19.848Z,42.23
2018-10-19T22:57:47.714Z,41.60
2018-10-19T23:00:15.385Z,41.50
2018-10-19T23:02:42.941Z,42.23
2018-10-19T23:05:11.528Z,43.33
2018-10-19T23:07:41.041Z,44.87
2018-10-19T23:10:08.778Z,41.70
2018-10-19T23:12:36.341Z,43.90
2018-10-19T23:15:03.881Z,44.37
2018-10-19T23:17:31.450Z,42.77
2018-10-19T23:19:58.990Z,41.40
2018-10-19T23:22:26.560Z,41.20
2018-10-19T23:24:54.097Z,44.07
2018-10-19T23:27:21.665Z,41.97
2018-10-19T23:29:49.194Z,42.47
2018-10-19T23:32:16.784Z,43.90
2018-10-19T23:34:44.313Z,44.77
2018-10-19T23:37:11.921Z,45.93
2018-10-19T23:39:39.479Z,44.40
2018-10-19T23:42:07.012Z,44.77
2018-10-19T23:44:34.581Z,45.40
2018-10-19T23:47:02.210Z,43.07
2018-10-19T23:49:29.778Z,43.40
2018-10-19T23:51:57.312Z,42.60
2018-10-19T23:54:24.875Z,43.20
2018-10-19T23:56:52.401Z,43.20
2018-10-19T23:59:19.981Z,44.20
